Time;durP1;ratioP1;P1;durP2;ratioP2;P2;SDS_P1;SDS_P2;PMS_P1;PMS_P2;Temp;Humidity;BMP_temperature;BMP_pressure;BME280_temperature;BME280_humidity;BME280_pressure;Samples;Min_cycle;Max_cycle;Signal;HPM_P1;HPM_P2
2021/12/06 00:00:28;;;;;;;69.97;27.40;;;0.30;99.90;;;;;;8484939;27;20180;-63
2021/12/06 00:04:33;;;;;;;84.23;29.83;;;0.30;99.90;;;;;;8469298;27;20230;-64
2021/12/06 00:08:34;;;;;;;89.33;30.80;;;0.30;99.90;;;;;;8489092;27;20180;-66
2021/12/06 00:12:36;;;;;;;89.40;30.07;;;0.30;99.90;;;;;;8490971;27;20180;-64
2021/12/06 00:16:38;;;;;;;89.00;31.30;;;0.30;99.90;;;;;;8477277;27;20238;-66
2021/12/06 00:20:39;;;;;;;91.27;32.20;;;0.30;99.90;;;;;;8488408;27;20207;-66
2021/12/06 00:24:40;;;;;;;91.07;30.53;;;0.30;99.90;;;;;;8467511;27;20213;-64
2021/12/06 00:28:43;;;;;;;74.83;27.93;;;0.20;99.90;;;;;;8498449;27;20193;-65
2021/12/06 00:32:46;;;;;;;72.20;29.40;;;0.30;99.90;;;;;;8470210;27;20192;-64
2021/12/06 00:36:55;;;;;;;78.53;29.50;;;0.30;99.90;;;;;;8488385;27;20189;-64
2021/12/06 00:40:57;;;;;;;77.90;29.63;;;0.30;99.90;;;;;;8468931;27;20189;-66
2021/12/06 00:44:58;;;;;;;78.50;28.03;;;0.30;99.90;;;;;;8486097;27;20399;-64
2021/12/06 00:48:59;;;;;;;70.73;29.40;;;0.30;99.90;;;;;;8490892;27;20189;-64
2021/12/06 00:53:00;;;;;;;63.53;26.80;;;0.20;99.90;;;;;;8486731;27;20497;-64
2021/12/06 00:57:04;;;;;;;64.40;27.77;;;0.30;99.90;;;;;;8469622;27;20209;-65
2021/12/06 01:01:08;;;;;;;60.47;26.23;;;0.30;99.90;;;;;;8484352;27;20234;-64
2021/12/06 01:05:09;;;;;;;68.10;26.77;;;0.30;99.90;;;;;;8468086;27;20193;-64
2021/12/06 01:09:10;;;;;;;61.20;26.00;;;0.40;99.90;;;;;;8485998;27;20171;-64
2021/12/06 01:13:11;;;;;;;59.40;26.10;;;0.30;99.90;;;;;;8476371;27;20337;-64
2021/12/06 01:17:12;;;;;;;51.87;24.77;;;0.30;99.90;;;;;;8513740;27;20175;-65
2021/12/06 01:25:28;;;;;;;53.37;24.40;;;0.40;99.90;;;;;;8485940;27;20205;-65
2021/12/06 01:42:23;;;;;;;38.00;20.80;;;0.40;99.90;;;;;;8481807;27;20193;-64
2021/12/06 01:46:24;;;;;;;42.57;21.83;;;0.30;99.90;;;;;;8475725;27;20272;-66
2021/12/06 01:50:30;;;;;;;42.17;22.20;;;0.30;99.90;;;;;;8461007;27;20185;-63
2021/12/06 01:54:31;;;;;;;52.93;25.60;;;0.30;99.90;;;;;;8472092;27;20278;-64
2021/12/06 01:58:32;;;;;;;52.73;26.07;;;0.30;99.90;;;;;;8469456;27;20169;-65
2021/12/06 02:02:33;;;;;;;51.27;27.73;;;0.30;99.90;;;;;;8468954;27;20260;-66
2021/12/06 02:06:36;;;;;;;54.93;27.33;;;0.30;99.90;;;;;;8465898;27;20589;-64
2021/12/06 02:10:39;;;;;;;56.50;27.47;;;0.20;99.90;;;;;;8464936;27;20195;-65
2021/12/06 02:14:54;;;;;;;54.03;29.00;;;0.20;99.90;;;;;;8499054;27;20209;-66
2021/12/06 02:19:02;;;;;;;49.47;28.00;;;0.30;99.90;;;;;;8480923;27;20258;-64
2021/12/06 02:23:04;;;;;;;52.13;28.23;;;0.30;99.90;;;;;;8483182;27;20216;-64
2021/12/06 02:27:08;;;;;;;47.83;26.00;;;0.20;99.90;;;;;;8468084;27;20177;-67
2021/12/06 02:31:10;;;;;;;57.30;27.93;;;0.20;99.90;;;;;;8474965;27;20183;-64
2021/12/06 02:35:15;;;;;;;65.57;32.10;;;0.20;99.90;;;;;;8465055;27;20304;-63
2021/12/06 02:39:24;;;;;;;53.57;29.60;;;0.20;99.90;;;;;;8466326;28;20185;-66
2021/12/06 02:43:25;;;;;;;61.23;29.93;;;0.20;99.90;;;;;;8471779;27;20182;-64
2021/12/06 02:47:25;;;;;;;53.53;27.13;;;0.20;99.90;;;;;;8465202;28;20191;-66
2021/12/06 02:51:27;;;;;;;58.53;30.73;;;0.20;99.90;;;;;;8469559;27;20180;-64
2021/12/06 02:55:32;;;;;;;56.23;29.40;;;0.10;99.90;;;;;;8490976;27;20303;-65
2021/12/06 02:59:35;;;;;;;54.50;30.37;;;0.10;99.90;;;;;;8491765;27;20189;-64
2021/12/06 03:03:37;;;;;;;63.37;30.97;;;0.10;99.90;;;;;;8463119;27;20190;-66
2021/12/06 03:07:39;;;;;;;91.67;40.70;;;0.00;99.90;;;;;;8449106;27;20276;-63
2021/12/06 03:11:44;;;;;;;65.73;33.60;;;0.10;99.90;;;;;;8471276;27;20193;-65
2021/12/06 03:15:45;;;;;;;64.30;32.87;;;0.10;99.90;;;;;;8513594;27;20264;-64
2021/12/06 03:19:47;;;;;;;58.37;30.27;;;0.10;99.90;;;;;;8511036;27;20185;-67
2021/12/06 03:23:49;;;;;;;68.57;33.63;;;0.00;99.90;;;;;;8471243;27;20200;-64
2021/12/06 03:27:50;;;;;;;60.50;30.30;;;0.10;99.90;;;;;;8476818;27;20296;-64
2021/12/06 03:31:51;;;;;;;55.30;29.50;;;0.10;99.90;;;;;;8496051;27;20186;-64
2021/12/06 03:35:52;;;;;;;65.73;35.27;;;0.10;99.90;;;;;;8506599;27;20218;-63
2021/12/06 03:39:53;;;;;;;61.03;30.00;;;0.00;99.90;;;;;;8471232;27;20268;-65
2021/12/06 03:43:58;;;;;;;53.33;28.83;;;0.00;99.90;;;;;;8474772;27;20181;-64
2021/12/06 03:47:59;;;;;;;55.50;27.57;;;0.00;99.90;;;;;;8466252;27;20187;-65
2021/12/06 03:52:01;;;;;;;53.53;27.07;;;0.00;99.90;;;;;;8469932;27;20185;-63
2021/12/06 03:56:03;;;;;;;63.63;30.37;;;-0.10;99.90;;;;;;8484043;27;20209;-64
2021/12/06 04:00:06;;;;;;;59.47;29.53;;;0.00;99.90;;;;;;8495647;27;20177;-64
2021/12/06 04:04:09;;;;;;;59.10;28.77;;;-0.10;99.90;;;;;;8466311;27;20287;-66
2021/12/06 04:08:10;;;;;;;100.90;44.53;;;0.00;99.90;;;;;;8461443;27;20413;-64
2021/12/06 04:12:12;;;;;;;61.90;30.57;;;0.00;99.90;;;;;;8475306;27;20181;-65
2021/12/06 04:16:13;;;;;;;57.17;27.73;;;0.00;99.90;;;;;;8506862;27;20493;-63
2021/12/06 04:20:14;;;;;;;66.30;32.93;;;0.00;99.90;;;;;;8491633;27;20218;-64
2021/12/06 04:24:16;;;;;;;56.07;27.70;;;0.00;99.90;;;;;;8469796;27;20216;-64
2021/12/06 04:28:19;;;;;;;59.70;26.97;;;0.00;99.90;;;;;;8473685;27;20188;-66
2021/12/06 04:32:22;;;;;;;56.47;26.70;;;-0.10;99.90;;;;;;8469481;27;20200;-64
2021/12/06 04:36:24;;;;;;;59.10;27.73;;;-0.10;99.90;;;;;;8482444;27;20327;-64
2021/12/06 04:40:27;;;;;;;58.93;29.23;;;-0.10;99.90;;;;;;8486015;27;20187;-64
2021/12/06 04:44:28;;;;;;;60.93;31.87;;;-0.20;99.90;;;;;;8506760;27;20231;-65
2021/12/06 04:48:29;;;;;;;61.73;32.03;;;-0.20;99.90;;;;;;8501719;27;20187;-64
2021/12/06 04:52:30;;;;;;;59.23;28.80;;;-0.20;99.90;;;;;;8503071;27;20181;-66
2021/12/06 04:56:33;;;;;;;60.20;27.30;;;-0.10;99.90;;;;;;8478058;27;20283;-64
2021/12/06 05:00:57;;;;;;;64.13;27.80;;;-0.10;99.90;;;;;;8484852;27;20263;-65
2021/12/06 05:05:02;;;;;;;60.80;28.77;;;-0.10;99.90;;;;;;8501112;27;20240;-64
2021/12/06 05:09:10;;;;;;;55.00;27.27;;;-0.10;99.90;;;;;;8472703;27;20177;-63
2021/12/06 05:13:11;;;;;;;52.93;26.07;;;-0.20;99.90;;;;;;8468654;27;20184;-67
2021/12/06 05:17:12;;;;;;;48.97;24.50;;;-0.20;99.90;;;;;;8502177;27;20179;-64
2021/12/06 05:21:13;;;;;;;54.83;26.83;;;-0.20;99.90;;;;;;8481275;27;20205;-64
2021/12/06 05:25:15;;;;;;;56.07;27.30;;;-0.30;99.90;;;;;;8467484;27;20233;-63
2021/12/06 05:29:25;;;;;;;53.40;26.00;;;-0.40;99.90;;;;;;8486699;27;20194;-64
2021/12/06 05:33:30;;;;;;;47.77;24.17;;;-0.30;99.90;;;;;;8461681;27;20296;-66
2021/12/06 05:37:32;;;;;;;56.60;25.87;;;-0.40;99.90;;;;;;8467590;27;20219;-65
2021/12/06 05:41:34;;;;;;;54.20;25.43;;;-0.40;99.90;;;;;;8466891;27;20176;-65
2021/12/06 05:45:36;;;;;;;55.50;25.80;;;-0.40;99.90;;;;;;8504520;27;20183;-65
2021/12/06 05:49:37;;;;;;;55.63;25.43;;;-0.40;99.90;;;;;;8471544;27;20216;-65
2021/12/06 05:53:38;;;;;;;53.37;27.00;;;-0.40;99.90;;;;;;8466597;27;20204;-64
2021/12/06 05:57:41;;;;;;;57.43;27.20;;;-0.40;99.90;;;;;;8456186;27;20180;-64
2021/12/06 06:01:42;;;;;;;57.33;28.63;;;-0.30;99.90;;;;;;8474148;27;20183;-65
2021/12/06 06:05:43;;;;;;;50.87;26.60;;;-0.40;99.90;;;;;;8467389;27;20568;-63
2021/12/06 06:09:45;;;;;;;53.73;25.33;;;-0.30;99.90;;;;;;8436523;28;20229;-64
2021/12/06 06:13:46;;;;;;;51.83;25.23;;;-0.40;99.90;;;;;;8474642;27;20235;-64
2021/12/06 06:17:47;;;;;;;50.20;24.93;;;-0.40;99.90;;;;;;8466017;27;20205;-65
2021/12/06 06:21:49;;;;;;;49.30;24.03;;;-0.40;99.90;;;;;;8480961;27;20190;-64
2021/12/06 06:25:50;;;;;;;52.90;26.10;;;-0.40;99.90;;;;;;8465796;27;20192;-65
2021/12/06 06:29:50;;;;;;;58.80;27.87;;;-0.40;99.90;;;;;;8493016;27;20191;-64
2021/12/06 06:33:51;;;;;;;55.43;26.27;;;-0.40;99.90;;;;;;8499522;27;20215;-66
2021/12/06 06:37:54;;;;;;;47.00;23.73;;;-0.30;99.90;;;;;;8466227;27;20212;-63
2021/12/06 06:41:55;;;;;;;50.00;25.00;;;-0.30;99.90;;;;;;8480482;28;20207;-65
2021/12/06 06:45:56;;;;;;;56.97;26.63;;;-0.30;99.90;;;;;;8509143;27;20701;-65
2021/12/06 06:49:57;;;;;;;56.53;24.70;;;-0.30;99.90;;;;;;8519106;27;20219;-67
2021/12/06 06:53:58;;;;;;;60.47;25.30;;;-0.30;99.90;;;;;;8499763;27;20219;-65
2021/12/06 06:57:59;;;;;;;59.07;27.80;;;-0.30;99.90;;;;;;8466596;27;20180;-64
2021/12/06 07:02:00;;;;;;;63.73;27.40;;;-0.20;99.90;;;;;;8501384;27;20210;-67
2021/12/06 07:06:02;;;;;;;60.27;29.60;;;-0.20;99.90;;;;;;8474302;27;20184;-67
2021/12/06 07:10:05;;;;;;;72.03;33.00;;;-0.20;99.90;;;;;;8473929;27;20186;-68
2021/12/06 07:14:06;;;;;;;60.40;27.03;;;-0.10;99.90;;;;;;8445114;28;20304;-68
2021/12/06 07:18:07;;;;;;;54.50;25.57;;;-0.10;99.90;;;;;;8465934;28;20184;-67
2021/12/06 07:22:08;;;;;;;48.10;23.07;;;-0.10;99.90;;;;;;8465966;28;20234;-67
2021/12/06 07:26:12;;;;;;;50.43;25.73;;;-0.10;99.90;;;;;;8458320;27;20361;-67
2021/12/06 07:30:14;;;;;;;50.30;24.80;;;-0.10;99.90;;;;;;8484431;27;20224;-67
2021/12/06 07:34:16;;;;;;;57.33;24.73;;;-0.10;99.90;;;;;;8496270;27;20275;-67
2021/12/06 07:38:17;;;;;;;66.03;25.97;;;-0.20;99.90;;;;;;8470859;27;20181;-67
2021/12/06 07:42:18;;;;;;;51.87;26.50;;;-0.20;99.90;;;;;;8458933;27;20214;-67
2021/12/06 07:46:18;;;;;;;58.20;26.00;;;-0.20;99.90;;;;;;8498546;27;20184;-67
2021/12/06 07:50:21;;;;;;;56.60;24.70;;;-0.20;99.90;;;;;;8524702;27;20305;-67
2021/12/06 07:54:22;;;;;;;55.40;23.57;;;-0.20;99.90;;;;;;8522741;27;20295;-67
2021/12/06 07:58:23;;;;;;;57.13;24.63;;;-0.20;99.90;;;;;;8480172;27;20177;-67
2021/12/06 08:02:25;;;;;;;53.47;24.87;;;-0.20;99.90;;;;;;8488544;27;20228;-68
2021/12/06 08:06:26;;;;;;;56.30;24.80;;;-0.20;99.90;;;;;;8469854;27;20207;-68
2021/12/06 08:10:28;;;;;;;51.73;24.03;;;-0.20;99.90;;;;;;8455606;28;20261;-68
2021/12/06 08:14:29;;;;;;;49.07;25.57;;;-0.20;99.90;;;;;;8467689;27;20203;-68
2021/12/06 08:18:30;;;;;;;53.30;25.07;;;-0.20;99.90;;;;;;8488877;27;20192;-67
2021/12/06 08:22:31;;;;;;;46.47;24.53;;;-0.20;99.90;;;;;;8471706;27;20245;-67
2021/12/06 08:26:36;;;;;;;44.20;22.73;;;-0.20;99.90;;;;;;8486064;27;20225;-67
2021/12/06 08:30:37;;;;;;;42.73;21.37;;;-0.20;99.90;;;;;;8510464;27;20275;-67
2021/12/06 08:34:41;;;;;;;45.50;22.90;;;-0.20;99.90;;;;;;8498412;27;20250;-68
2021/12/06 08:38:42;;;;;;;48.33;22.03;;;-0.20;99.90;;;;;;8488096;27;20199;-67
2021/12/06 08:42:44;;;;;;;46.33;22.43;;;-0.20;99.90;;;;;;8488056;27;20180;-67
2021/12/06 08:46:46;;;;;;;51.20;25.37;;;-0.20;99.90;;;;;;8496268;27;20181;-68
2021/12/06 08:50:47;;;;;;;47.73;22.63;;;-0.20;99.90;;;;;;8489036;27;20173;-68
2021/12/06 08:54:48;;;;;;;44.33;23.63;;;-0.20;99.90;;;;;;8468919;27;20216;-67
2021/12/06 08:58:50;;;;;;;42.13;21.20;;;-0.20;99.90;;;;;;8492796;27;20176;-68
2021/12/06 09:02:51;;;;;;;42.67;21.47;;;-0.20;99.90;;;;;;8482070;27;20169;-66
2021/12/06 09:06:54;;;;;;;43.63;21.87;;;-0.20;99.90;;;;;;8469117;27;20181;-67
2021/12/06 09:10:55;;;;;;;45.30;22.57;;;-0.20;99.90;;;;;;8469781;27;20252;-68
2021/12/06 09:14:59;;;;;;;37.10;19.30;;;-0.20;99.90;;;;;;8482040;27;20198;-68
2021/12/06 09:19:01;;;;;;;40.90;22.97;;;-0.10;99.90;;;;;;8479392;27;20181;-68
2021/12/06 09:23:03;;;;;;;43.87;22.17;;;-0.10;99.90;;;;;;8468096;27;20192;-68
2021/12/06 09:27:05;;;;;;;44.00;22.10;;;-0.10;99.90;;;;;;8471794;27;20177;-68
2021/12/06 09:31:07;;;;;;;44.10;22.20;;;0.00;99.90;;;;;;8486110;27;20187;-69
2021/12/06 09:35:12;;;;;;;60.67;31.40;;;0.00;99.90;;;;;;8507013;27;20241;-68
2021/12/06 09:39:14;;;;;;;46.17;23.40;;;0.10;99.90;;;;;;8488419;27;20178;-69
2021/12/06 09:43:16;;;;;;;42.87;21.83;;;0.10;99.90;;;;;;8476742;27;20322;-68
2021/12/06 09:47:17;;;;;;;48.87;23.50;;;0.10;99.90;;;;;;8497092;27;20202;-68
2021/12/06 09:51:21;;;;;;;42.97;20.93;;;0.20;99.90;;;;;;8520598;27;20181;-69
2021/12/06 09:55:24;;;;;;;43.47;22.00;;;0.20;99.90;;;;;;8509417;27;20213;-69
2021/12/06 09:59:27;;;;;;;42.83;21.50;;;0.20;99.90;;;;;;8495797;27;20187;-68
2021/12/06 10:03:29;;;;;;;41.10;21.23;;;0.20;99.90;;;;;;8479923;27;20270;-69
2021/12/06 10:07:31;;;;;;;44.30;20.07;;;0.20;99.90;;;;;;8487259;27;20301;-69
2021/12/06 10:11:33;;;;;;;40.50;21.70;;;0.20;99.90;;;;;;8488646;27;20206;-68
2021/12/06 10:15:34;;;;;;;41.33;21.13;;;0.20;99.90;;;;;;8464072;27;20204;-69
2021/12/06 10:19:35;;;;;;;44.97;21.57;;;0.30;99.90;;;;;;8485532;27;20181;-68
2021/12/06 10:23:38;;;;;;;42.40;21.40;;;0.30;99.90;;;;;;8466503;27;20302;-69
2021/12/06 10:27:49;;;;;;;36.33;19.43;;;0.20;99.90;;;;;;8472354;27;20300;-68
2021/12/06 10:31:55;;;;;;;40.63;21.00;;;0.30;99.90;;;;;;8510563;27;20183;-68
2021/12/06 10:36:03;;;;;;;45.27;22.20;;;0.20;99.90;;;;;;8483222;27;20210;-69
2021/12/06 10:40:08;;;;;;;50.23;22.30;;;0.20;99.90;;;;;;8477519;27;20173;-68
2021/12/06 10:44:13;;;;;;;49.67;25.30;;;0.20;99.90;;;;;;8495229;27;20220;-68
2021/12/06 10:48:23;;;;;;;49.20;21.23;;;0.20;99.90;;;;;;8519027;27;20174;-68
2021/12/06 10:52:27;;;;;;;50.87;22.53;;;0.20;99.90;;;;;;8501176;27;20204;-68
2021/12/06 10:57:07;;;;;;;45.40;20.70;;;0.20;99.90;;;;;;8476216;27;20289;-68
2021/12/06 11:01:11;;;;;;;42.13;20.57;;;0.20;99.90;;;;;;8489923;27;20189;-68
2021/12/06 11:05:28;;;;;;;49.07;23.80;;;0.20;99.90;;;;;;8475038;28;20177;-71
2021/12/06 11:09:31;;;;;;;50.63;22.77;;;0.10;99.90;;;;;;8514557;27;20180;-69
2021/12/06 11:13:45;;;;;;;59.50;24.60;;;0.00;99.90;;;;;;8515411;27;20211;-68
2021/12/06 11:18:00;;;;;;;51.13;22.70;;;0.10;99.90;;;;;;8497756;27;20172;-68
2021/12/06 11:22:16;;;;;;;47.23;19.73;;;0.10;99.90;;;;;;8486813;27;20226;-68
2021/12/06 11:26:17;;;;;;;55.67;20.10;;;0.10;99.90;;;;;;8475819;27;20271;-68
2021/12/06 11:30:23;;;;;;;40.50;19.43;;;0.10;99.90;;;;;;8489865;27;20181;-68
2021/12/06 11:34:50;;;;;;;50.60;22.53;;;0.10;99.90;;;;;;8490123;27;20216;-69
2021/12/06 11:39:07;;;;;;;43.50;20.37;;;0.10;99.90;;;;;;8465414;27;20185;-69
2021/12/06 11:43:13;;;;;;;54.93;21.50;;;0.10;99.90;;;;;;8459510;27;20176;-67
2021/12/06 11:47:18;;;;;;;53.90;22.80;;;0.10;99.90;;;;;;8490148;27;20165;-68
2021/12/06 11:51:19;;;;;;;50.27;22.97;;;0.10;99.90;;;;;;8472113;27;20272;-68
2021/12/06 11:55:20;;;;;;;44.00;20.37;;;0.00;99.90;;;;;;8464567;27;20220;-67
2021/12/06 11:59:21;;;;;;;48.10;21.27;;;0.00;99.90;;;;;;8497305;27;20177;-68
2021/12/06 12:03:30;;;;;;;59.97;24.27;;;0.10;99.90;;;;;;8470837;27;20209;-69
2021/12/06 12:07:54;;;;;;;45.03;21.00;;;0.10;99.90;;;;;;8490902;27;20215;-68
2021/12/06 12:12:05;;;;;;;42.07;20.63;;;0.10;99.90;;;;;;8470425;27;20222;-68
2021/12/06 12:16:10;;;;;;;46.27;21.37;;;0.10;99.90;;;;;;8498111;27;20207;-69
2021/12/06 12:20:11;;;;;;;43.90;21.60;;;0.10;99.90;;;;;;8463117;27;20199;-69
2021/12/06 12:24:12;;;;;;;42.57;20.53;;;0.10;99.90;;;;;;8489774;27;20330;-67
2021/12/06 12:32:16;;;;;;;40.60;20.17;;;0.10;99.90;;;;;;8496026;27;20184;-68
2021/12/06 12:36:20;;;;;;;37.67;18.93;;;0.10;99.90;;;;;;8451292;28;20204;-68
2021/12/06 12:40:25;;;;;;;39.80;18.80;;;0.10;99.90;;;;;;8454276;28;20277;-68
2021/12/06 12:44:43;;;;;;;38.67;19.17;;;0.10;99.90;;;;;;8476400;27;20181;-67
2021/12/06 12:48:59;;;;;;;39.30;18.50;;;0.10;99.90;;;;;;8490000;27;20264;-68
2021/12/06 12:53:14;;;;;;;39.17;19.23;;;0.10;99.90;;;;;;8469650;27;20185;-68
2021/12/06 12:57:16;;;;;;;39.07;20.00;;;0.10;99.90;;;;;;8469461;27;20278;-68
2021/12/06 13:01:20;;;;;;;37.47;19.13;;;0.10;99.90;;;;;;8467774;27;20198;-68
2021/12/06 13:05:27;;;;;;;44.00;22.03;;;0.00;99.90;;;;;;8494728;27;20183;-69
2021/12/06 13:09:28;;;;;;;39.20;19.70;;;0.00;99.90;;;;;;8503434;27;20188;-69
2021/12/06 13:13:35;;;;;;;37.63;17.60;;;0.00;99.90;;;;;;8513583;27;20283;-68
2021/12/06 13:17:48;;;;;;;37.77;18.23;;;0.10;99.90;;;;;;8500640;27;20172;-68
2021/12/06 13:22:09;;;;;;;43.03;17.97;;;0.10;99.90;;;;;;8485799;27;20177;-68
2021/12/06 13:26:10;;;;;;;34.03;17.07;;;0.10;99.90;;;;;;8485835;27;20173;-68
2021/12/06 13:30:31;;;;;;;38.47;20.20;;;0.10;99.90;;;;;;8478361;27;20187;-69
2021/12/06 13:34:32;;;;;;;38.33;18.90;;;0.20;99.90;;;;;;8484239;27;20231;-68
2021/12/06 13:38:36;;;;;;;33.97;17.30;;;0.20;99.90;;;;;;8467997;27;20172;-68
2021/12/06 13:42:42;;;;;;;38.70;18.60;;;0.10;99.90;;;;;;8471299;27;20267;-68
2021/12/06 13:46:43;;;;;;;37.40;18.40;;;0.20;99.90;;;;;;8510103;27;20181;-68
2021/12/06 13:50:45;;;;;;;34.37;16.83;;;0.20;99.90;;;;;;8485705;27;20182;-68
2021/12/06 13:54:50;;;;;;;31.83;17.07;;;0.10;99.90;;;;;;8459801;27;20297;-67
2021/12/06 13:58:53;;;;;;;32.63;17.30;;;0.10;99.90;;;;;;8482939;27;20191;-68
2021/12/06 14:02:58;;;;;;;35.87;18.03;;;0.10;99.90;;;;;;8464920;27;20257;-69
2021/12/06 14:07:01;;;;;;;36.30;19.17;;;0.20;99.90;;;;;;8486338;27;20214;-68
2021/12/06 14:11:02;;;;;;;36.47;19.23;;;0.20;99.90;;;;;;8485246;27;20207;-69
2021/12/06 14:15:19;;;;;;;42.73;20.50;;;0.20;99.90;;;;;;8466748;27;20200;-68
2021/12/06 14:19:26;;;;;;;41.43;20.13;;;0.20;99.90;;;;;;8467899;27;20261;-68
2021/12/06 14:23:30;;;;;;;39.80;20.03;;;0.20;99.90;;;;;;8465630;27;20204;-68
2021/12/06 14:27:32;;;;;;;33.97;17.40;;;0.10;99.90;;;;;;8469054;27;20183;-68
2021/12/06 14:31:33;;;;;;;34.97;17.63;;;0.10;99.90;;;;;;8487699;27;20172;-69
2021/12/06 14:35:35;;;;;;;36.57;20.67;;;0.10;99.90;;;;;;8501549;27;20252;-68
2021/12/06 14:39:38;;;;;;;31.13;17.13;;;0.00;99.90;;;;;;8519698;27;20258;-68
2021/12/06 14:43:39;;;;;;;33.93;18.37;;;0.00;99.90;;;;;;8508722;27;20222;-67
2021/12/06 14:47:58;;;;;;;38.03;18.53;;;0.00;99.90;;;;;;8516859;27;20181;-68
2021/12/06 14:52:04;;;;;;;35.13;18.93;;;0.00;99.90;;;;;;8470758;28;20301;-68
2021/12/06 14:56:17;;;;;;;40.20;18.83;;;0.00;99.90;;;;;;8466173;27;20209;-68
2021/12/06 15:00:24;;;;;;;58.80;26.57;;;0.00;99.90;;;;;;8478117;27;20642;-68
2021/12/06 15:04:36;;;;;;;54.30;24.77;;;0.00;99.90;;;;;;8464975;28;20192;-67
2021/12/06 15:08:42;;;;;;;44.40;22.70;;;-0.10;99.90;;;;;;8467889;28;20208;-68
2021/12/06 15:12:47;;;;;;;43.57;22.10;;;-0.10;99.90;;;;;;8491081;27;20320;-68
2021/12/06 15:16:48;;;;;;;38.17;19.67;;;-0.10;99.90;;;;;;8466741;28;20210;-68
2021/12/06 15:20:51;;;;;;;36.10;19.87;;;0.00;99.90;;;;;;8466003;28;20178;-64
2021/12/06 15:24:53;;;;;;;37.20;18.07;;;-0.10;99.90;;;;;;8464960;28;20272;-65
2021/12/06 15:28:56;;;;;;;35.53;17.60;;;-0.10;99.90;;;;;;8466344;27;20272;-64
2021/12/06 15:33:05;;;;;;;37.97;19.03;;;-0.20;99.90;;;;;;8463382;28;20240;-64
2021/12/06 15:37:07;;;;;;;33.97;17.47;;;-0.20;99.90;;;;;;8464012;28;20247;-65
2021/12/06 15:41:21;;;;;;;36.70;18.27;;;-0.20;99.90;;;;;;8463794;28;20172;-66
2021/12/06 15:45:27;;;;;;;31.37;16.07;;;-0.30;99.90;;;;;;8472378;27;20188;-65
2021/12/06 15:49:29;;;;;;;35.83;18.43;;;-0.30;99.90;;;;;;8464385;28;20185;-67
2021/12/06 15:53:30;;;;;;;33.83;18.37;;;-0.30;99.90;;;;;;8478628;28;20268;-66
2021/12/06 15:57:37;;;;;;;36.37;19.20;;;-0.30;99.90;;;;;;8466643;27;20223;-64
2021/12/06 16:01:43;;;;;;;39.17;20.43;;;-0.40;99.90;;;;;;8487109;27;20173;-65
2021/12/06 16:05:45;;;;;;;36.50;20.20;;;-0.40;99.90;;;;;;8489519;27;20181;-65
2021/12/06 16:09:46;;;;;;;39.67;19.90;;;-0.40;99.90;;;;;;8478936;27;20233;-65
2021/12/06 16:13:48;;;;;;;45.03;21.93;;;-0.40;99.90;;;;;;8497433;27;20326;-65
2021/12/06 16:17:54;;;;;;;41.60;20.10;;;-0.40;99.90;;;;;;8470045;27;20188;-66
2021/12/06 16:21:57;;;;;;;37.80;19.60;;;-0.40;99.90;;;;;;8468496;27;20201;-64
2021/12/06 16:26:02;;;;;;;45.17;20.73;;;-0.40;99.90;;;;;;8472369;27;20270;-65
2021/12/06 16:30:04;;;;;;;35.70;18.13;;;-0.50;99.90;;;;;;8467859;27;20191;-65
2021/12/06 16:34:11;;;;;;;43.70;21.43;;;-0.50;99.90;;;;;;8484691;27;20211;-66
2021/12/06 16:38:19;;;;;;;40.93;18.93;;;-0.50;99.90;;;;;;8453676;28;20180;-65
2021/12/06 16:42:32;;;;;;;42.40;22.50;;;-0.50;99.90;;;;;;8461519;27;20179;-65
2021/12/06 16:46:46;;;;;;;35.77;19.50;;;-0.50;99.90;;;;;;8480300;27;20215;-65
2021/12/06 16:50:50;;;;;;;39.43;21.47;;;-0.60;99.90;;;;;;8467662;27;20253;-65
2021/12/06 16:55:17;;;;;;;47.63;24.73;;;-0.60;99.90;;;;;;8468722;27;20341;-66
2021/12/06 16:59:18;;;;;;;39.63;18.50;;;-0.60;99.90;;;;;;8483434;27;20197;-64
2021/12/06 17:03:27;;;;;;;36.13;18.50;;;-0.60;99.90;;;;;;8466879;27;20171;-65
2021/12/06 17:07:34;;;;;;;29.53;17.30;;;-0.60;99.90;;;;;;8462788;27;20193;-65
2021/12/06 17:11:37;;;;;;;34.03;18.00;;;-0.60;99.90;;;;;;8467373;27;20185;-67
2021/12/06 17:15:41;;;;;;;38.53;17.87;;;-0.60;99.90;;;;;;8502459;27;20252;-65
2021/12/06 17:19:42;;;;;;;33.37;17.07;;;-0.60;99.90;;;;;;8481626;27;20175;-66
2021/12/06 17:23:45;;;;;;;35.13;17.07;;;-0.60;99.90;;;;;;8487174;27;20208;-65
2021/12/06 17:27:48;;;;;;;36.63;17.97;;;-0.60;99.90;;;;;;8486532;27;20180;-66
2021/12/06 17:31:50;;;;;;;36.23;17.77;;;-0.60;99.90;;;;;;8476017;27;20233;-65
2021/12/06 17:36:02;;;;;;;39.17;18.87;;;-0.60;99.90;;;;;;8484273;27;20261;-65
2021/12/06 17:40:05;;;;;;;43.07;20.70;;;-0.60;99.90;;;;;;8431977;28;20531;-65
2021/12/06 17:44:07;;;;;;;38.43;20.00;;;-0.60;99.90;;;;;;8470316;27;20243;-65
2021/12/06 17:48:09;;;;;;;37.90;19.50;;;-0.60;99.90;;;;;;8465151;27;20182;-66
2021/12/06 17:52:10;;;;;;;40.07;18.87;;;-0.60;99.90;;;;;;8466678;27;20176;-66
2021/12/06 17:56:11;;;;;;;34.27;17.13;;;-0.60;99.90;;;;;;8478150;27;20203;-66
2021/12/06 18:00:13;;;;;;;31.73;16.23;;;-0.60;99.90;;;;;;8482878;27;20184;-64
2021/12/06 18:04:21;;;;;;;44.10;20.10;;;-0.60;99.90;;;;;;8465698;27;20294;-65
2021/12/06 18:08:22;;;;;;;47.37;19.93;;;-0.60;99.90;;;;;;8482897;27;20191;-64
2021/12/06 18:12:24;;;;;;;38.17;19.50;;;-0.60;99.90;;;;;;8456597;27;20189;-66
2021/12/06 18:16:24;;;;;;;39.50;20.70;;;-0.70;99.90;;;;;;8503694;27;20203;-64
2021/12/06 18:20:27;;;;;;;61.97;26.47;;;-0.60;99.90;;;;;;8485193;27;20176;-66
2021/12/06 18:24:28;;;;;;;44.63;21.40;;;-0.60;99.90;;;;;;8463264;27;20209;-66
2021/12/06 18:28:31;;;;;;;32.00;17.87;;;-0.60;99.90;;;;;;8451287;27;20223;-65
2021/12/06 18:32:32;;;;;;;30.63;17.60;;;-0.60;99.90;;;;;;8468422;27;20200;-67
2021/12/06 18:36:36;;;;;;;32.87;17.47;;;-0.50;99.90;;;;;;8442712;28;20201;-66
2021/12/06 18:40:52;;;;;;;43.97;21.50;;;-0.50;99.90;;;;;;8449428;28;20188;-66
2021/12/06 18:44:55;;;;;;;36.10;18.10;;;-0.50;99.90;;;;;;8476254;27;20181;-66
2021/12/06 18:48:56;;;;;;;36.67;17.83;;;-0.60;99.90;;;;;;8465317;28;20213;-70
2021/12/06 18:53:04;;;;;;;36.10;17.93;;;-0.60;99.90;;;;;;8464828;28;20382;-68
2021/12/06 18:57:07;;;;;;;50.50;22.47;;;-0.60;99.90;;;;;;8466156;27;20211;-65
2021/12/06 19:01:12;;;;;;;51.17;23.17;;;-0.70;99.90;;;;;;8471291;28;20169;-67
2021/12/06 19:05:13;;;;;;;40.77;19.80;;;-0.70;99.90;;;;;;8462953;28;20177;-64
2021/12/06 19:09:16;;;;;;;51.73;21.90;;;-0.70;99.90;;;;;;8463815;28;20176;-64
2021/12/06 19:13:17;;;;;;;34.73;18.53;;;-0.70;99.90;;;;;;8473811;27;20189;-66
2021/12/06 19:17:18;;;;;;;29.27;15.70;;;-0.60;99.90;;;;;;8469263;28;20238;-65
2021/12/06 19:21:20;;;;;;;30.17;15.80;;;-0.60;99.90;;;;;;8464081;28;20295;-65
2021/12/06 19:25:23;;;;;;;27.27;15.07;;;-0.60;99.90;;;;;;8464637;27;20207;-65
2021/12/06 19:29:27;;;;;;;26.47;15.40;;;-0.60;99.90;;;;;;8481768;27;20271;-64
2021/12/06 19:33:29;;;;;;;26.20;14.83;;;-0.60;99.90;;;;;;8484048;27;20197;-66
2021/12/06 19:37:31;;;;;;;27.57;16.53;;;-0.50;99.90;;;;;;8467843;27;20231;-67
2021/12/06 19:41:32;;;;;;;28.70;15.77;;;-0.60;99.90;;;;;;8490398;27;20251;-66
2021/12/06 19:45:37;;;;;;;25.20;14.33;;;-0.60;99.90;;;;;;8497981;27;20181;-66
2021/12/06 19:49:39;;;;;;;27.93;15.43;;;-0.50;99.90;;;;;;8498185;27;20181;-65
2021/12/06 19:53:40;;;;;;;25.83;13.70;;;-0.50;99.90;;;;;;8503506;27;20186;-66
2021/12/06 19:57:42;;;;;;;26.33;15.33;;;-0.50;99.90;;;;;;8476671;27;20176;-65
2021/12/06 20:01:44;;;;;;;27.60;15.33;;;-0.50;99.90;;;;;;8471396;27;20181;-65
2021/12/06 20:05:47;;;;;;;28.63;15.20;;;-0.50;99.90;;;;;;8491873;27;20176;-65
2021/12/06 20:09:47;;;;;;;32.67;18.60;;;-0.50;99.90;;;;;;8479634;27;20185;-66
2021/12/06 20:13:50;;;;;;;33.20;18.00;;;-0.50;99.90;;;;;;8510043;27;20262;-66
2021/12/06 20:17:51;;;;;;;45.47;24.03;;;-0.50;99.90;;;;;;8488138;27;20185;-65
2021/12/06 20:21:53;;;;;;;57.33;24.13;;;-0.50;99.90;;;;;;8470085;27;20181;-65
2021/12/06 20:25:55;;;;;;;56.87;26.20;;;-0.50;99.90;;;;;;8468282;27;20189;-65
2021/12/06 20:29:56;;;;;;;52.00;27.20;;;-0.60;99.90;;;;;;8489346;27;20169;-66
2021/12/06 20:33:57;;;;;;;49.93;28.07;;;-0.60;99.90;;;;;;8520727;27;20211;-65
2021/12/06 20:37:59;;;;;;;61.33;31.07;;;-0.60;99.90;;;;;;8486726;27;20174;-67
2021/12/06 20:42:00;;;;;;;73.17;35.00;;;-0.60;99.90;;;;;;8465348;27;20184;-65
2021/12/06 20:46:03;;;;;;;91.97;37.13;;;-0.60;99.90;;;;;;8512653;27;20319;-65
2021/12/06 20:50:06;;;;;;;90.53;38.23;;;-0.60;99.90;;;;;;8501772;27;20184;-64
2021/12/06 20:54:09;;;;;;;83.17;34.23;;;-0.70;99.90;;;;;;8482257;27;20208;-65
2021/12/06 20:58:11;;;;;;;99.33;38.77;;;-0.60;99.90;;;;;;8481369;27;20185;-65
2021/12/06 21:02:12;;;;;;;136.90;44.60;;;-0.60;99.90;;;;;;8468453;27;20184;-64